Time;durP1;ratioP1;P1;durP2;ratioP2;P2;SDS_P1;SDS_P2;PMS_P1;PMS_P2;Temp;Humidity;BMP_temperature;BMP_pressure;BME280_temperature;BME280_humidity;BME280_pressure;Samples;Min_cycle;Max_cycle;Signal;HPM_P1;HPM_P2
2022/01/29 00:38:33;;;;;;;0.93;0.38;;;;;;;10.65;90.10;102050.09;6210159;22;20024;-78
2022/01/29 00:41:06;;;;;;;0.90;0.30;;;;;;;10.64;90.07;102031.84;6216486;23;20639;-78
2022/01/29 00:43:34;;;;;;;2.08;0.50;;;;;;;10.67;89.74;102042.31;6216829;23;20034;-78
2022/01/29 00:46:02;;;;;;;1.17;0.20;;;;;;;10.69;89.68;102040.03;6216329;23;20039;-78
2022/01/29 00:48:33;;;;;;;1.40;0.50;;;;;;;10.68;89.50;102028.13;6242597;23;20012;-79
2022/01/29 00:51:02;;;;;;;1.48;0.30;;;;;;;10.71;89.41;102026.69;6215868;23;20020;-78
2022/01/29 00:53:29;;;;;;;1.25;0.20;;;;;;;10.72;89.23;102033.88;6215891;23;20012;-78
2022/01/29 00:56:07;;;;;;;3.67;0.20;;;;;;;10.71;89.22;102021.13;6215708;23;20039;-78
2022/01/29 00:58:36;;;;;;;1.80;0.28;;;;;;;10.70;89.40;102028.63;6215920;23;20039;-78
2022/01/29 01:01:03;;;;;;;0.38;0.10;;;;;;;10.70;89.90;102019.50;6215893;23;20012;-78
2022/01/29 01:03:30;;;;;;;0.65;0.20;;;;;;;10.68;90.02;102016.22;6242976;23;20036;-79
2022/01/29 01:05:57;;;;;;;2.72;0.75;;;;;;;10.62;90.66;102011.94;6242797;23;20323;-78
2022/01/29 01:08:25;;;;;;;2.42;0.25;;;;;;;10.57;91.06;102020.38;6216481;23;20119;-79
2022/01/29 01:10:56;;;;;;;0.25;0.10;;;;;;;10.52;91.49;101998.34;6216938;23;20244;-78
2022/01/29 01:13:23;;;;;;;0.50;0.20;;;;;;;10.47;92.18;101998.47;6242943;23;20087;-78
2022/01/29 01:15:50;;;;;;;0.40;0.20;;;;;;;10.45;92.12;102022.91;6191057;23;20019;-78
2022/01/29 01:18:17;;;;;;;0.45;0.30;;;;;;;10.43;92.54;102008.56;6216134;23;20008;-78
2022/01/29 01:20:44;;;;;;;0.68;0.30;;;;;;;10.43;92.51;102005.78;6216039;23;20098;-79
2022/01/29 01:23:11;;;;;;;1.98;0.43;;;;;;;10.42;92.51;102012.44;6216103;23;20012;-78
2022/01/29 01:25:40;;;;;;;0.38;0.22;;;;;;;10.43;92.33;102005.78;6215801;23;20012;-78
2022/01/29 01:28:06;;;;;;;1.30;0.75;;;;;;;10.44;92.04;102005.47;6215757;23;20098;-79
2022/01/29 01:30:35;;;;;;;0.77;0.50;;;;;;;10.46;91.74;102005.16;6216036;23;20008;-78
2022/01/29 01:33:03;;;;;;;1.95;0.35;;;;;;;10.48;91.65;102005.66;6215564;23;20270;-78
2022/01/29 01:35:43;;;;;;;2.63;0.40;;;;;;;10.49;91.37;101996.22;6242311;23;20008;-78
2022/01/29 01:38:49;;;;;;;2.42;0.60;;;;;;;10.49;90.98;101985.13;6242150;23;20032;-78
2022/01/29 01:41:07;;;;;;;2.50;0.50;;;;;;;10.45;91.06;101975.84;6212647;23;20070;-78
2022/01/29 01:43:34;;;;;;;2.55;1.00;;;;;;;10.40;90.88;101960.97;6242655;23;20016;-78
2022/01/29 01:46:02;;;;;;;1.63;1.23;;;;;;;10.39;90.56;101973.19;6190305;23;20020;-78
2022/01/29 01:48:29;;;;;;;5.35;1.60;;;;;;;10.35;90.14;101960.31;6242737;23;20018;-78
2022/01/29 01:50:57;;;;;;;5.38;0.60;;;;;;;10.36;90.32;101964.69;6215542;23;20099;-78
2022/01/29 01:53:24;;;;;;;2.92;0.95;;;;;;;10.36;90.09;101959.16;6242177;23;20029;-78
2022/01/29 01:55:51;;;;;;;1.63;0.50;;;;;;;10.33;89.85;101955.06;6215748;23;20012;-78
2022/01/29 01:58:19;;;;;;;1.27;0.52;;;;;;;10.35;89.72;101952.00;6242513;23;20430;-78
2022/01/29 02:00:45;;;;;;;3.20;0.90;;;;;;;10.35;89.77;101946.47;6215412;23;20087;-78
2022/01/29 02:03:12;;;;;;;3.65;0.47;;;;;;;10.37;89.46;101950.53;6215628;23;20038;-79
2022/01/29 02:05:40;;;;;;;4.78;0.80;;;;;;;10.38;89.45;101930.03;6215468;23;20326;-79
2022/01/29 02:08:08;;;;;;;4.55;0.68;;;;;;;10.40;89.43;101921.41;6215328;23;20012;-78
2022/01/29 02:10:35;;;;;;;7.95;1.70;;;;;;;10.45;89.08;101931.53;6215617;23;20082;-78
2022/01/29 02:13:04;;;;;;;7.00;1.35;;;;;;;10.50;88.85;101936.94;6241949;23;20012;-78
2022/01/29 02:15:31;;;;;;;2.90;1.20;;;;;;;10.53;88.61;101947.38;6242752;23;20008;-78
2022/01/29 02:17:59;;;;;;;6.20;1.60;;;;;;;10.58;88.20;101944.50;6215712;23;20095;-78
2022/01/29 02:20:29;;;;;;;7.32;1.00;;;;;;;10.62;88.15;101951.84;6215676;23;20028;-78
2022/01/29 02:22:57;;;;;;;8.05;1.20;;;;;;;10.66;87.70;101952.84;6215316;23;20008;-78
2022/01/29 02:25:50;;;;;;;7.15;1.60;;;;;;;10.70;87.32;101955.78;6215842;23;20020;-78
2022/01/29 02:28:20;;;;;;;7.72;1.98;;;;;;;10.73;87.12;101957.94;6237122;23;20020;-78
2022/01/29 02:30:50;;;;;;;5.35;0.80;;;;;;;10.76;87.00;101946.22;6240797;23;20008;-78
2022/01/29 02:33:17;;;;;;;2.30;0.80;;;;;;;10.79;87.08;101940.06;6215036;23;20024;-78
2022/01/29 02:35:50;;;;;;;4.38;1.13;;;;;;;10.80;86.49;101944.47;6215721;23;20012;-78
2022/01/29 02:38:20;;;;;;;9.95;2.28;;;;;;;10.84;86.44;101937.13;6241500;23;20008;-78
2022/01/29 02:40:53;;;;;;;9.52;2.05;;;;;;;10.85;86.25;101933.25;6215296;23;20481;-78
2022/01/29 02:43:32;;;;;;;7.30;1.50;;;;;;;10.87;86.20;101945.66;6242325;23;20020;-78
2022/01/29 02:46:29;;;;;;;8.75;1.48;;;;;;;10.89;86.09;101935.06;6190244;23;20445;-78
2022/01/29 02:48:52;;;;;;;11.77;2.22;;;;;;;10.91;86.00;101940.25;6243471;23;20299;-79
2022/01/29 02:51:21;;;;;;;8.77;1.83;;;;;;;10.91;85.85;101923.63;6244218;23;20016;-78
2022/01/29 02:53:48;;;;;;;8.40;1.52;;;;;;;10.94;85.65;101931.31;6216973;23;20008;-78
2022/01/29 02:56:16;;;;;;;9.10;1.48;;;;;;;10.96;85.43;101920.75;6243439;22;20012;-78
2022/01/29 02:58:44;;;;;;;18.98;1.50;;;;;;;10.97;85.42;101908.53;6243924;23;20015;-78
2022/01/29 03:01:11;;;;;;;5.57;1.58;;;;;;;10.98;85.19;101893.53;6216970;23;20020;-78
2022/01/29 03:03:38;;;;;;;11.23;1.70;;;;;;;10.97;85.16;101903.81;6192447;23;20430;-78
2022/01/29 03:06:09;;;;;;;10.00;1.50;;;;;;;11.00;85.07;101891.25;6242935;23;20069;-78
2022/01/29 03:08:37;;;;;;;6.00;2.00;;;;;;;11.01;85.10;101893.69;6192411;23;20372;-78
2022/01/29 03:11:05;;;;;;;11.13;3.15;;;;;;;11.00;84.81;101910.66;6244184;23;20012;-78
2022/01/29 03:13:32;;;;;;;9.07;1.95;;;;;;;11.01;84.63;101904.00;6191801;23;20361;-78
2022/01/29 03:15:59;;;;;;;14.30;2.72;;;;;;;11.03;85.13;101896.16;6216522;23;20016;-78
2022/01/29 03:18:26;;;;;;;14.20;1.98;;;;;;;11.02;85.03;101894.53;6216901;23;20311;-78
2022/01/29 03:20:53;;;;;;;16.60;2.95;;;;;;;11.02;84.93;101887.03;6217154;23;20012;-78
2022/01/29 03:23:20;;;;;;;7.28;1.80;;;;;;;11.01;84.90;101877.06;6217199;23;20188;-78
2022/01/29 03:25:50;;;;;;;14.68;3.35;;;;;;;11.02;85.22;101884.25;6243152;23;20334;-78
2022/01/29 03:28:16;;;;;;;11.90;2.85;;;;;;;11.02;84.77;101883.44;6216897;23;20066;-78
2022/01/29 03:30:46;;;;;;;10.38;3.33;;;;;;;11.02;84.82;101895.34;6192530;23;20501;-78
2022/01/29 03:33:13;;;;;;;13.10;2.40;;;;;;;11.04;84.51;101891.44;6192125;23;20636;-78
2022/01/29 03:35:40;;;;;;;7.43;1.60;;;;;;;11.05;84.64;101884.75;6241860;23;20047;-78
2022/01/29 03:38:07;;;;;;;8.05;1.63;;;;;;;11.05;84.59;101888.34;6242765;23;20329;-78
2022/01/29 03:40:35;;;;;;;12.07;2.10;;;;;;;11.05;84.45;101880.03;6243535;23;20017;-78
2022/01/29 03:43:10;;;;;;;13.52;2.50;;;;;;;11.07;84.34;101869.44;6243278;23;20018;-78
2022/01/29 03:45:37;;;;;;;7.30;1.80;;;;;;;11.08;84.48;101867.47;6243091;23;20008;-78
2022/01/29 03:48:06;;;;;;;9.95;2.80;;;;;;;11.04;84.57;101861.75;6243511;23;20062;-78
2022/01/29 03:50:34;;;;;;;14.40;2.78;;;;;;;11.05;84.40;101863.41;6243654;23;20020;-78
2022/01/29 03:53:01;;;;;;;7.40;1.52;;;;;;;11.06;84.49;101867.81;6216984;23;20027;-78
2022/01/29 03:55:28;;;;;;;14.68;2.97;;;;;;;11.06;84.29;101850.38;6216324;22;20020;-78
2022/01/29 03:57:54;;;;;;;10.38;1.98;;;;;;;11.06;84.44;101853.13;6243145;23;20082;-78
2022/01/29 04:00:21;;;;;;;10.23;2.25;;;;;;;11.07;84.56;101863.88;6243101;23;20434;-78
2022/01/29 04:02:48;;;;;;;8.07;1.95;;;;;;;11.05;84.42;101852.31;6242596;23;20007;-78
2022/01/29 04:05:15;;;;;;;6.70;2.65;;;;;;;11.04;84.70;101850.66;6191226;23;20399;-78
2022/01/29 04:07:43;;;;;;;10.57;1.48;;;;;;;11.03;84.65;101843.50;6191949;23;20012;-78
2022/01/29 04:10:12;;;;;;;7.88;1.67;;;;;;;11.02;84.81;101852.94;6191586;23;20016;-78
2022/01/29 04:12:44;;;;;;;5.68;1.10;;;;;;;11.01;84.87;101834.72;6243042;23;20055;-78
2022/01/29 04:15:11;;;;;;;10.10;2.08;;;;;;;11.00;84.81;101839.44;6242872;23;20429;-78
2022/01/29 04:17:38;;;;;;;8.25;1.75;;;;;;;11.00;84.89;101835.84;6243136;23;20402;-78
2022/01/29 04:20:06;;;;;;;7.78;2.17;;;;;;;11.02;84.82;101841.88;6191577;23;20016;-78
2022/01/29 04:22:32;;;;;;;11.93;1.50;;;;;;;11.02;84.96;101836.31;6243178;23;20008;-78
2022/01/29 04:24:59;;;;;;;8.02;1.50;;;;;;;11.02;85.00;101823.28;6242255;23;20012;-78
2022/01/29 04:27:37;;;;;;;12.52;2.30;;;;;;;11.02;84.74;101833.56;6242864;23;20012;-78
2022/01/29 04:30:13;;;;;;;10.10;1.88;;;;;;;11.02;84.82;101844.63;6216148;23;20023;-78
2022/01/29 04:35:15;;;;;;;12.52;2.92;;;;;;;11.04;84.58;101853.44;6242955;23;20035;-78
2022/01/29 04:37:42;;;;;;;9.65;1.90;;;;;;;11.05;84.64;101851.50;6240957;23;20022;-79
2022/01/29 04:40:10;;;;;;;10.25;1.83;;;;;;;11.05;84.54;101855.09;6191667;23;20015;-78
2022/01/29 04:42:37;;;;;;;11.30;2.38;;;;;;;11.06;84.58;101856.72;6216557;23;20011;-78
2022/01/29 04:45:04;;;;;;;12.77;1.73;;;;;;;11.05;84.63;101849.53;6242561;23;20043;-78
2022/01/29 04:47:31;;;;;;;6.60;1.63;;;;;;;11.06;84.51;101848.41;6243036;23;20008;-78
2022/01/29 04:49:58;;;;;;;7.40;1.83;;;;;;;11.08;84.56;101853.63;6215855;23;20043;-78
2022/01/29 04:52:25;;;;;;;9.38;1.50;;;;;;;11.08;84.58;101850.84;6216557;23;20019;-78
2022/01/29 04:54:52;;;;;;;6.68;1.45;;;;;;;11.07;84.44;101844.50;6242471;23;20016;-78
2022/01/29 04:57:18;;;;;;;8.05;1.38;;;;;;;11.07;84.55;101830.63;6242641;22;20106;-78
2022/01/29 04:59:45;;;;;;;9.10;1.38;;;;;;;11.10;84.66;101830.00;6242875;23;20019;-78
2022/01/29 05:02:12;;;;;;;10.90;1.48;;;;;;;11.09;84.56;101833.91;6242504;23;20426;-78
2022/01/29 05:04:39;;;;;;;7.10;1.80;;;;;;;11.08;84.61;101826.72;6242359;23;20012;-78
2022/01/29 05:07:06;;;;;;;8.25;1.80;;;;;;;11.08;84.70;101809.28;6243085;23;20111;-78
2022/01/29 05:09:33;;;;;;;12.45;3.05;;;;;;;11.07;84.50;101797.38;6242438;23;20054;-78
2022/01/29 05:12:02;;;;;;;8.73;2.58;;;;;;;11.07;84.61;101794.59;6242339;23;20023;-78
2022/01/29 05:27:59;;;;;;;8.10;2.33;;;;;;;11.08;84.31;101776.84;6242268;23;20012;-78
2022/01/29 05:30:25;;;;;;;13.52;1.83;;;;;;;11.08;84.10;101765.75;6215440;23;20016;-78
2022/01/29 05:32:52;;;;;;;13.18;2.63;;;;;;;11.11;83.98;101790.06;6242473;23;20019;-78
2022/01/29 05:35:19;;;;;;;16.33;3.05;;;;;;;11.13;83.79;101770.31;6215690;23;20621;-78
2022/01/29 05:37:49;;;;;;;16.13;1.90;;;;;;;11.12;83.86;101774.25;6215647;23;20012;-78
2022/01/29 05:40:17;;;;;;;12.30;1.80;;;;;;;11.13;83.74;101773.91;6215950;23;20008;-78
2022/01/29 05:42:44;;;;;;;10.23;2.63;;;;;;;11.16;83.75;101794.63;6242355;23;20023;-78
2022/01/29 05:45:11;;;;;;;6.07;1.85;;;;;;;11.15;83.62;101766.09;6242550;23;20030;-78
2022/01/29 05:47:37;;;;;;;8.23;2.20;;;;;;;11.16;83.72;101776.06;6242280;23;20013;-78
2022/01/29 05:50:05;;;;;;;12.15;2.13;;;;;;;11.19;83.55;101782.91;6215875;23;20027;-78
2022/01/29 05:52:32;;;;;;;11.18;2.28;;;;;;;11.20;83.43;101801.97;6215851;23;20012;-78
2022/01/29 05:55:03;;;;;;;13.27;3.20;;;;;;;11.20;83.27;101768.69;6216860;23;20019;-78
2022/01/29 05:57:29;;;;;;;10.13;1.77;;;;;;;11.19;83.38;101753.22;6241898;22;20055;-78
2022/01/29 05:59:56;;;;;;;12.60;2.53;;;;;;;11.21;83.39;101742.63;6242073;23;20016;-77
2022/01/29 06:02:23;;;;;;;9.77;1.67;;;;;;;11.22;83.09;101757.31;6190024;23;20016;-78
2022/01/29 06:04:50;;;;;;;12.75;2.70;;;;;;;11.24;83.11;101758.63;6190768;23;20326;-78
2022/01/29 06:07:17;;;;;;;9.32;2.03;;;;;;;11.24;83.44;101755.84;6242294;23;20321;-78
2022/01/29 06:09:45;;;;;;;10.32;2.40;;;;;;;11.26;83.23;101781.28;6215549;23;20449;-78
2022/01/29 06:12:12;;;;;;;14.18;2.22;;;;;;;11.25;83.34;101765.78;6242453;23;20012;-78
2022/01/29 06:14:38;;;;;;;8.48;3.42;;;;;;;11.27;82.99;101771.81;6165421;23;20020;-78
2022/01/29 06:17:06;;;;;;;14.77;2.10;;;;;;;11.29;83.11;101754.84;6190493;23;20019;-77
2022/01/29 06:19:33;;;;;;;11.85;1.70;;;;;;;11.28;83.10;101758.78;6215624;23;20047;-78
2022/01/29 06:21:59;;;;;;;8.52;3.30;;;;;;;11.27;82.79;101771.00;6215180;23;20008;-78
2022/01/29 06:24:27;;;;;;;12.80;2.20;;;;;;;11.30;82.76;101771.19;6242443;23;20012;-78
2022/01/29 06:26:53;;;;;;;19.52;5.47;;;;;;;11.31;82.92;101772.78;6217275;23;20016;-78
2022/01/29 06:29:20;;;;;;;12.50;3.45;;;;;;;11.30;83.06;101768.41;6217659;23;20604;-78
2022/01/29 06:31:49;;;;;;;6.97;2.00;;;;;;;11.30;82.97;101773.94;6243979;23;20452;-78
2022/01/29 06:34:20;;;;;;;14.88;2.20;;;;;;;11.29;82.80;101774.25;6217387;23;20038;-78
2022/01/29 06:36:46;;;;;;;12.88;3.72;;;;;;;11.29;83.06;101766.75;6244218;23;20019;-78
2022/01/29 06:39:13;;;;;;;12.20;2.50;;;;;;;11.29;83.16;101760.41;6243647;23;20438;-78
2022/01/29 06:41:43;;;;;;;10.68;2.22;;;;;;;11.29;82.49;101764.00;6243759;23;20020;-78
2022/01/29 06:44:10;;;;;;;15.15;2.70;;;;;;;11.29;82.63;101749.31;6244405;23;20008;-78
2022/01/29 06:46:37;;;;;;;9.77;2.92;;;;;;;11.29;82.55;101727.97;6243572;23;20012;-78
2022/01/29 06:49:04;;;;;;;9.27;2.17;;;;;;;11.30;82.81;101721.28;6217304;23;20023;-78
2022/01/29 06:51:32;;;;;;;14.32;2.30;;;;;;;11.29;82.70;101733.50;6243652;23;20337;-78
2022/01/29 06:53:59;;;;;;;16.58;2.72;;;;;;;11.29;82.65;101741.81;6217300;23;20020;-78
2022/01/29 06:56:25;;;;;;;18.90;2.88;;;;;;;11.29;82.49;101732.69;6217336;23;20434;-78
2022/01/29 06:58:52;;;;;;;10.05;1.98;;;;;;;11.29;82.65;101727.97;6243100;23;20009;-77
2022/01/29 07:01:37;;;;;;;9.45;1.88;;;;;;;11.31;82.59;101739.53;6243996;23;20058;-78
2022/01/29 07:04:04;;;;;;;7.60;2.47;;;;;;;11.33;82.52;101728.13;6217461;23;20495;-78
2022/01/29 07:06:31;;;;;;;15.25;3.17;;;;;;;11.33;82.34;101737.22;6217450;23;20016;-78
2022/01/29 07:08:59;;;;;;;12.90;3.28;;;;;;;11.34;82.56;101710.34;6242641;23;20074;-78
2022/01/29 07:11:25;;;;;;;13.35;2.50;;;;;;;11.31;82.71;101720.13;6244070;23;20040;-78
2022/01/29 07:14:01;;;;;;;17.48;3.03;;;;;;;11.28;82.90;101704.13;6217080;23;20016;-78
2022/01/29 07:16:32;;;;;;;8.70;1.92;;;;;;;11.29;83.21;101713.28;6217349;23;20370;-78
2022/01/29 07:18:59;;;;;;;12.20;2.35;;;;;;;11.29;83.28;101714.09;6243423;23;20012;-78
2022/01/29 07:21:26;;;;;;;10.75;2.38;;;;;;;11.27;83.46;101730.25;6191780;23;20015;-78
2022/01/29 07:23:53;;;;;;;10.50;1.80;;;;;;;11.27;83.97;101718.34;6216779;23;20371;-78
2022/01/29 07:26:19;;;;;;;10.82;2.00;;;;;;;11.25;83.82;101726.16;6243922;23;20015;-77
2022/01/29 07:28:47;;;;;;;12.23;2.53;;;;;;;11.24;84.15;101719.81;6243128;23;20016;-78
2022/01/29 07:31:21;;;;;;;12.77;2.85;;;;;;;11.20;84.57;101729.91;6243541;23;20008;-78
2022/01/29 07:33:49;;;;;;;13.57;1.65;;;;;;;11.19;85.00;101725.50;6216658;23;20024;-77
2022/01/29 07:36:16;;;;;;;9.25;2.17;;;;;;;11.18;85.10;101709.19;6217049;23;20004;-78
2022/01/29 07:38:43;;;;;;;7.80;1.88;;;;;;;11.14;85.52;101722.91;6216526;23;20023;-78
2022/01/29 07:41:10;;;;;;;9.73;2.03;;;;;;;11.14;85.72;101720.13;6192096;23;20373;-78
2022/01/29 07:43:36;;;;;;;14.55;2.90;;;;;;;11.13;86.44;101729.56;6243428;23;20012;-78
2022/01/29 07:46:04;;;;;;;8.93;2.65;;;;;;;11.07;87.15;101719.78;6216978;23;20040;-77
2022/01/29 07:48:31;;;;;;;8.55;1.45;;;;;;;11.04;87.38;101731.50;6217183;23;20012;-78
2022/01/29 07:50:57;;;;;;;16.25;3.53;;;;;;;11.04;87.81;101736.25;6243679;23;20099;-78
2022/01/29 07:53:24;;;;;;;7.00;2.13;;;;;;;11.00;87.94;101720.28;6216684;23;20016;-78
2022/01/29 07:55:51;;;;;;;6.60;1.77;;;;;;;11.00;88.20;101725.00;6217005;23;20424;-78
2022/01/29 07:58:19;;;;;;;5.07;1.10;;;;;;;10.98;88.71;101716.19;6217196;23;20012;-78
2022/01/29 08:00:46;;;;;;;13.60;1.88;;;;;;;10.97;88.92;101722.88;6241439;23;20430;-78
2022/01/29 08:03:13;;;;;;;9.10;1.40;;;;;;;10.95;89.34;101723.22;6243280;23;20022;-78
2022/01/29 08:05:40;;;;;;;6.28;1.55;;;;;;;10.95;89.34;101719.63;6217147;23;20043;-78
2022/01/29 08:08:14;;;;;;;4.97;1.00;;;;;;;10.93;89.96;101719.94;6243445;23;20012;-78
2022/01/29 08:10:41;;;;;;;4.70;1.20;;;;;;;10.90;90.52;101736.41;6243007;23;20075;-78
2022/01/29 08:13:08;;;;;;;4.13;1.10;;;;;;;10.90;90.79;101745.53;6243417;23;20062;-77
2022/01/29 08:15:35;;;;;;;5.43;0.88;;;;;;;10.86;91.82;101740.94;6216432;23;20012;-78
2022/01/29 08:18:02;;;;;;;6.20;1.02;;;;;;;10.85;91.97;101736.56;6242052;23;20012;-78
2022/01/29 08:20:29;;;;;;;4.90;1.58;;;;;;;10.84;92.13;101743.22;6191284;23;20083;-78
2022/01/29 08:22:56;;;;;;;9.80;1.73;;;;;;;10.85;92.40;101744.88;6191731;23;20580;-78
2022/01/29 08:25:23;;;;;;;5.65;1.05;;;;;;;10.83;93.12;101769.28;6243331;23;20087;-78
2022/01/29 08:27:50;;;;;;;4.80;1.40;;;;;;;10.83;93.03;101763.75;6215891;23;20382;-77
2022/01/29 08:30:17;;;;;;;5.78;1.40;;;;;;;10.82;93.24;101746.34;6243121;23;20012;-78
2022/01/29 08:32:44;;;;;;;3.83;1.08;;;;;;;10.79;93.94;101755.28;6241825;23;20012;-78
2022/01/29 08:35:14;;;;;;;5.00;1.00;;;;;;;10.80;93.98;101761.66;6243079;23;20062;-78
2022/01/29 08:37:42;;;;;;;8.23;1.65;;;;;;;10.79;94.47;101754.47;6216388;23;20027;-78
2022/01/29 08:40:10;;;;;;;3.40;0.98;;;;;;;10.77;94.33;101787.22;6241082;23;20008;-77
2022/01/29 08:43:02;;;;;;;7.15;1.35;;;;;;;10.75;96.04;101772.88;6243054;23;20012;-79
2022/01/29 08:45:29;;;;;;;8.02;1.05;;;;;;;10.75;95.67;101783.94;6229152;23;20059;-78
2022/01/29 08:47:56;;;;;;;5.63;1.33;;;;;;;10.75;95.79;101783.94;6216732;23;20031;-78
2022/01/29 08:50:23;;;;;;;6.80;1.30;;;;;;;10.74;96.13;101807.25;6215562;23;20036;-78
2022/01/29 08:52:50;;;;;;;6.68;1.80;;;;;;;10.76;96.22;101803.00;6242504;23;20008;-78
2022/01/29 08:55:17;;;;;;;2.42;1.30;;;;;;;10.77;96.28;101814.91;6190794;22;20581;-77
2022/01/29 08:57:43;;;;;;;5.85;2.00;;;;;;;10.77;96.59;101814.91;6216239;23;20019;-77
2022/01/29 09:00:11;;;;;;;10.52;1.88;;;;;;;10.78;96.89;101805.44;6191344;23;20016;-77
2022/01/29 09:02:38;;;;;;;3.47;0.90;;;;;;;10.76;97.79;101808.56;6191199;23;20110;-78
2022/01/29 09:05:10;;;;;;;5.63;1.63;;;;;;;10.78;97.28;101813.75;6217055;23;20325;-77
2022/01/29 09:07:38;;;;;;;7.18;1.70;;;;;;;10.79;97.75;101820.94;6216054;23;20047;-77
2022/01/29 09:10:05;;;;;;;9.55;1.42;;;;;;;10.79;97.51;101805.16;6216155;23;20119;-77
2022/01/29 09:12:32;;;;;;;9.82;2.03;;;;;;;10.77;98.66;101795.53;6240402;23;20500;-77
2022/01/29 09:14:59;;;;;;;4.75;1.58;;;;;;;10.77;98.63;101809.38;6240748;23;20012;-77
2022/01/29 09:17:26;;;;;;;10.38;1.50;;;;;;;10.75;98.54;101822.72;6241792;23;20008;-77
2022/01/29 09:19:53;;;;;;;4.30;1.23;;;;;;;10.71;98.56;101817.00;6216193;23;20453;-78
2022/01/29 09:22:20;;;;;;;3.53;1.00;;;;;;;10.69;97.38;101835.09;6242660;23;20081;-78
2022/01/29 09:24:47;;;;;;;8.00;1.45;;;;;;;10.71;96.33;101860.50;6241892;23;20035;-78
2022/01/29 09:27:13;;;;;;;7.60;1.60;;;;;;;10.69;95.28;101879.41;6240043;23;20012;-78
2022/01/29 09:29:40;;;;;;;5.18;1.63;;;;;;;10.66;94.34;101874.50;6215875;23;20013;-77
2022/01/29 09:32:07;;;;;;;11.25;1.73;;;;;;;10.61;93.76;101903.16;6190974;23;20016;-77
2022/01/29 09:34:34;;;;;;;9.82;1.80;;;;;;;10.58;93.00;101889.09;6215497;23;20016;-77
2022/01/29 09:37:01;;;;;;;12.95;1.73;;;;;;;10.62;92.35;101892.84;6242794;23;20008;-78
2022/01/29 09:39:28;;;;;;;16.25;2.88;;;;;;;10.71;92.15;101905.63;6242352;23;20015;-77
2022/01/29 09:41:56;;;;;;;7.80;2.10;;;;;;;10.76;91.03;101924.06;6215514;23;20020;-78
2022/01/29 09:44:23;;;;;;;9.23;2.35;;;;;;;10.76;90.25;101910.22;6242740;23;20012;-77
2022/01/29 09:46:51;;;;;;;27.70;5.95;;;;;;;10.77;89.68;101920.16;6242448;23;20008;-78
2022/01/29 09:49:19;;;;;;;33.88;7.32;;;;;;;10.67;86.57;101945.38;6242306;23;20521;-78
2022/01/29 09:51:46;;;;;;;26.88;7.10;;;;;;;10.43;84.09;101964.25;6240974;23;20047;-78
2022/01/29 09:54:13;;;;;;;23.92;5.85;;;;;;;10.28;84.30;101969.03;6243101;23;20024;-78
2022/01/29 09:56:40;;;;;;;29.58;6.68;;;;;;;10.15;83.73;101980.97;6215904;23;20012;-78
2022/01/29 09:59:07;;;;;;;33.30;6.72;;;;;;;10.07;83.28;102000.22;6215892;23;20012;-77
2022/01/29 10:01:34;;;;;;;31.45;5.93;;;;;;;10.00;82.00;102022.78;6216383;23;20008;-77
2022/01/29 10:04:05;;;;;;;35.42;7.00;;;;;;;9.95;79.87;102031.22;6242641;23;20098;-77
2022/01/29 10:06:34;;;;;;;32.33;7.30;;;;;;;9.93;81.41;102036.22;6216135;23;20011;-77
2022/01/29 10:09:06;;;;;;;29.17;6.95;;;;;;;9.82;78.65;102043.09;6240952;23;20046;-77
2022/01/29 10:11:34;;;;;;;37.40;7.25;;;;;;;9.78;78.63;102059.50;6215630;23;20012;-77
2022/01/29 10:14:04;;;;;;;37.92;7.38;;;;;;;9.75;77.61;102070.34;6215304;23;20338;-77
2022/01/29 10:16:33;;;;;;;25.63;5.78;;;;;;;9.70;77.14;102067.69;6242483;23;20013;-77
2022/01/29 10:19:06;;;;;;;35.00;6.68;;;;;;;9.67;76.13;102073.81;6242593;23;20008;-78
2022/01/29 10:21:46;;;;;;;24.55;5.18;;;;;;;9.69;75.99;102074.31;6213825;23;20012;-77
2022/01/29 10:24:16;;;;;;;26.25;6.82;;;;;;;9.65;75.74;102076.06;6242481;23;20008;-78
2022/01/29 10:26:48;;;;;;;19.45;4.88;;;;;;;9.64;75.48;102085.47;6190219;23;20016;-78
2022/01/29 10:29:20;;;;;;;31.08;5.57;;;;;;;9.62;74.69;102077.50;6243230;23;20034;-78
2022/01/29 10:31:50;;;;;;;30.70;5.97;;;;;;;9.65;75.30;102065.00;6215538;23;20011;-78
2022/01/29 10:34:23;;;;;;;21.85;5.25;;;;;;;9.61;73.77;102070.34;6242196;23;20365;-78
2022/01/29 10:37:12;;;;;;;24.83;6.82;;;;;;;9.58;72.06;102067.38;6190662;23;20016;-78
2022/01/29 10:39:44;;;;;;;30.90;7.72;;;;;;;9.63;73.56;102083.88;6216065;23;20083;-79
2022/01/29 10:42:18;;;;;;;26.75;4.75;;;;;;;9.63;73.13;102083.88;6215550;23;20008;-78
2022/01/29 10:44:48;;;;;;;31.10;5.35;;;;;;;9.64;73.47;102113.13;6242348;23;20410;-77
2022/01/29 10:47:15;;;;;;;22.77;5.18;;;;;;;9.68;73.48;102114.19;6242279;23;20434;-78
2022/01/29 10:49:52;;;;;;;27.05;5.15;;;;;;;9.67;72.05;102129.13;6190441;23;20365;-78
2022/01/29 10:52:34;;;;;;;20.67;4.85;;;;;;;9.69;71.99;102133.22;6190460;23;20013;-78
2022/01/29 10:55:05;;;;;;;26.25;5.80;;;;;;;9.70;71.88;102140.41;6215589;23;20012;-77
2022/01/29 10:57:52;;;;;;;44.17;7.65;;;;;;;9.77;72.88;102137.22;6242328;23;20102;-78
2022/01/29 11:00:23;;;;;;;24.15;4.68;;;;;;;9.81;73.23;102143.78;6242017;23;20500;-77
2022/01/29 11:02:53;;;;;;;21.88;4.72;;;;;;;9.78;72.55;102136.94;6242086;23;20019;-78
2022/01/29 11:05:25;;;;;;;26.95;6.03;;;;;;;9.83;72.43;102138.78;6241732;23;20430;-78
2022/01/29 11:07:55;;;;;;;24.73;5.28;;;;;;;9.78;72.14;102131.41;6215570;23;20012;-78
2022/01/29 11:10:25;;;;;;;22.38;5.20;;;;;;;9.78;71.49;102153.53;6217902;23;20111;-78
2022/01/29 11:12:53;;;;;;;24.90;5.70;;;;;;;9.82;72.46;102159.28;6215918;23;20394;-77
2022/01/29 11:15:22;;;;;;;25.67;4.85;;;;;;;9.87;72.06;102161.13;6242820;23;20126;-78
2022/01/29 11:17:52;;;;;;;30.02;6.32;;;;;;;9.93;71.57;102171.75;6243941;23;20016;-77
2022/01/29 11:20:19;;;;;;;28.52;5.95;;;;;;;10.03;71.44;102179.88;6243348;23;20015;-78
2022/01/29 11:22:50;;;;;;;21.50;4.75;;;;;;;10.06;71.25;102182.00;6192399;23;20020;-78
2022/01/29 11:25:22;;;;;;;21.13;4.28;;;;;;;10.08;69.30;102201.91;6216934;23;20642;-78
2022/01/29 11:28:16;;;;;;;49.03;7.43;;;;;;;10.11;68.76;102194.94;6243454;23;20012;-77
2022/01/29 11:30:47;;;;;;;21.58;5.07;;;;;;;10.11;70.76;102212.34;6216999;23;20113;-79
2022/01/29 11:33:17;;;;;;;23.00;5.30;;;;;;;10.14;71.04;102211.78;6191967;23;20043;-78
2022/01/29 11:35:56;;;;;;;28.65;5.78;;;;;;;10.20;69.87;102232.69;6216690;23;20024;-77
2022/01/29 11:38:32;;;;;;;22.15;5.22;;;;;;;10.27;68.77;102235.88;6243599;23;20035;-78
2022/01/29 11:41:04;;;;;;;32.42;6.15;;;;;;;10.33;68.78;102242.94;6243608;23;20357;-78
2022/01/29 11:43:46;;;;;;;26.73;5.38;;;;;;;10.37;69.99;102237.63;6217032;23;20004;-84
2022/01/29 11:46:32;;;;;;;21.40;4.63;;;;;;;10.37;69.52;102244.00;6243427;23;20023;-79
2022/01/29 11:49:17;;;;;;;17.73;4.40;;;;;;;10.38;69.83;102233.72;6215659;23;20353;-77
2022/01/29 11:51:47;;;;;;;23.13;5.85;;;;;;;10.36;69.94;102239.56;6216732;23;20016;-78
2022/01/29 11:54:27;;;;;;;30.45;5.45;;;;;;;10.35;70.26;102229.63;6243865;23;20012;-78
2022/01/29 11:57:16;;;;;;;24.30;4.93;;;;;;;10.31;68.17;102252.69;6216908;23;20095;-77
2022/01/29 11:59:44;;;;;;;20.92;6.38;;;;;;;10.33;70.04;102253.19;6243006;23;20569;-78
2022/01/29 12:02:21;;;;;;;29.33;5.35;;;;;;;10.34;69.87;102255.69;6243324;23;20004;-78
2022/01/29 12:05:10;;;;;;;24.45;6.72;;;;;;;10.38;69.96;102265.00;6221581;23;20081;-77
2022/01/29 12:08:16;;;;;;;31.75;8.75;;;;;;;10.42;67.98;102269.94;6242605;23;20066;-77
2022/01/29 12:11:10;;;;;;;38.28;7.82;;;;;;;10.48;67.58;102260.41;6208514;23;20377;-77
2022/01/29 12:13:38;;;;;;;25.30;5.47;;;;;;;10.47;68.80;102253.22;6216790;23;20032;-77
2022/01/29 12:16:05;;;;;;;25.75;5.00;;;;;;;10.50;68.87;102258.97;6216806;23;20015;-77
2022/01/29 12:18:35;;;;;;;18.17;5.22;;;;;;;10.51;68.64;102265.31;6217007;23;20091;-78
2022/01/29 12:21:05;;;;;;;14.73;3.00;;;;;;;10.51;67.42;102265.31;6216831;23;20406;-78
2022/01/29 12:23:50;;;;;;;21.60;4.53;;;;;;;10.51;66.51;102257.81;6241821;23;20099;-77
2022/01/29 12:26:21;;;;;;;26.70;4.25;;;;;;;10.55;66.54;102282.94;6242888;23;20024;-77